Malaviya Twenty — AUEV — position and weather

sailwx.info

Track history (hours):
 
Tides and Currents Weather Stations Pressure Air Temp Water Temp Dewpoint Dewpoint Depression Visibility Wind Speed Wind Dir Waves Ship Positions

Malaviya Twenty

Last reported at 2015-Jan-31 02:23 UTC. Time now 2015-Jan-31 05:31 UTC.
Position N 52°59' E 002°13'.

Length 72 m; draft 4.5 m.

Type: Ship. MMSI: 419504000.

Date/timePositionNaut miles runAvg speedWind from/ knotsBaromVisibWave heightAir tempDewpointWater temp
2015-Jan-31 02:23N 52°59' E 002°13'7 8.5
2015-Jan-31 01:33N 52°55' E 002°04'9 8.8
2015-Jan-31 00:34N 52°48' E 001°55'9 9.4
2015-Jan-30 23:33N 52°41' E 001°46'5 5.3
2015-Jan-30 22:33N 52°35' E 001°44'0 0.0
2015-Jan-30 21:33N 52°35' E 001°44'0 0.0
2015-Jan-30 20:33N 52°35' E 001°44'1 1.3
2015-Jan-30 19:33N 52°35' E 001°45'6 6.5
2015-Jan-30 18:33N 52°41' E 001°46'1010.2
2015-Jan-30 17:33N 52°49' E 001°56'23 2.5
2015-Jan-30 08:14N 53°11' E 002°06'6 8.1
2015-Jan-30 07:31N 53°15' E 001°58'  
2015-Jan-28 03:17N 53°14' E 001°28'710.0
2015-Jan-28 02:33N 53°07' E 001°28'8 8.4
2015-Jan-28 01:33N 52°58' E 001°31'8 8.4
2015-Jan-28 00:33N 52°51' E 001°38'8 8.4
2015-Jan-27 23:33N 52°44' E 001°46'8 8.3
2015-Jan-27 22:33N 52°36' E 001°46'1 1.2
2015-Jan-27 21:32N 52°35' E 001°44'0 0.0
2015-Jan-27 20:32N 52°35' E 001°44'0 0.0
2015-Jan-27 19:32N 52°35' E 001°44'0 0.0
2015-Jan-27 18:32N 52°35' E 001°44'0 0.0
2015-Jan-27 17:32N 52°35' E 001°44'0 0.0
2015-Jan-27 16:32N 52°35' E 001°44'0 0.2
2015-Jan-27 15:33N 52°36' E 001°44'0 0.0
2015-Jan-27 14:32N 52°36' E 001°44'0 0.0
2015-Jan-27 13:32N 52°36' E 001°44'0 0.0
2015-Jan-27 12:32N 52°36' E 001°44'0 0.0
2015-Jan-27 11:32N 52°36' E 001°44'0 0.0
2015-Jan-27 10:31N 52°36' E 001°44'0 0.0
2015-Jan-27 09:31N 52°36' E 001°44'0 0.0
2015-Jan-27 08:31N 52°36' E 001°44'0 0.0
2015-Jan-27 07:31N 52°36' E 001°44'0 0.0
2015-Jan-27 06:34N 52°36' E 001°44'1 1.2
2015-Jan-27 05:34N 52°35' E 001°45'2 1.9
2015-Jan-27 04:33N 52°37' E 001°46'7 7.3
2015-Jan-27 03:34N 52°44' E 001°49'6 5.8
2015-Jan-27 02:34N 52°49' E 001°55'6 6.3
2015-Jan-27 01:34N 52°53' E 002°01'12 5.5
2015-Jan-26 23:20N 53°03' E 002°14'0 0.1
2015-Jan-26 15:28N 53°03' E 002°13'0 0.2
2015-Jan-26 12:34N 53°03' E 002°14'2 0.6
2015-Jan-26 08:33N 53°01' E 002°14'1 0.2
2015-Jan-26 05:10N 53°02' E 002°14'0 0.1
2015-Jan-26 04:31N 53°02' E 002°14'1 0.5
2015-Jan-26 01:31N 53°03' E 002°14'0 0.2
2015-Jan-26 00:31N 53°03' E 002°14'0 0.1
2015-Jan-25 23:34N 53°03' E 002°14'2 0.4
2015-Jan-25 19:19N 53°01' E 002°14'12 5.7
2015-Jan-25 17:16N 53°05' E 002°33'2 1.4
2015-Jan-25 16:09N 53°04' E 002°31'10 5.6
2015-Jan-25 14:23N 53°03' E 002°14'0 0.1
2015-Jan-25 13:10N 53°03' E 002°14'3 0.8
2015-Jan-25 09:31N 53°02' E 002°18'2 1.2
2015-Jan-25 08:13N 53°02' E 002°16'1 0.8
2015-Jan-25 06:33N 53°01' E 002°18'2 2.1
2015-Jan-25 05:29N 53°03' E 002°15'1 0.5
2015-Jan-25 04:18N 53°02' E 002°15'1 0.4
2015-Jan-25 02:09N 53°03' E 002°14'0 0.7
2015-Jan-25 01:27N 53°03' E 002°14'0 0.0
2015-Jan-25 00:33N 53°03' E 002°14'2 0.2
2015-Jan-24 14:32N 53°02' E 002°16'3 0.2
2015-Jan-24 03:20N 52°60' E 002°13'1 1.8
2015-Jan-24 02:33N 53°01' E 002°15'2 1.9
2015-Jan-24 01:29N 53°02' E 002°18'4 3.1
2015-Jan-24 00:15N 52°59' E 002°13'5 6.7
2015-Jan-23 23:34N 52°56' E 002°07'8 7.6
2015-Jan-23 22:33N 52°51' E 001°58'8 7.8
2015-Jan-23 21:33N 52°45' E 001°50'8 7.8
2015-Jan-23 20:33N 52°38' E 001°46'3 2.7
2015-Jan-23 19:34N 52°35' E 001°44'0 0.4
2015-Jan-23 18:33N 52°36' E 001°44'0 0.0
2015-Jan-23 17:33N 52°36' E 001°44'0 0.0
2015-Jan-23 16:33N 52°36' E 001°44'0 0.1
2015-Jan-23 15:33N 52°35' E 001°44'0 0.3
2015-Jan-23 14:33N 52°35' E 001°44'5 4.6
2015-Jan-23 13:34N 52°40' E 001°46'1010.2
2015-Jan-23 12:34N 52°48' E 001°55'1111.1
2015-Jan-23 11:33N 52°56' E 002°08'8 7.7
2015-Jan-23 10:33N 53°03' E 002°14'0 0.0
2015-Jan-23 09:33N 53°03' E 002°14'2 0.6
2015-Jan-23 06:25N 53°01' E 002°14'2 0.3
2015-Jan-23 01:18N 53°02' E 002°17'3 3.9
2015-Jan-23 00:33N 53°04' E 002°14'52 4.3
2015-Jan-22 12:17N 53°40' E 001°09'  
Track history (hours):
 
Tides and Currents Weather Stations Pressure Air Temp Water Temp Dewpoint Dewpoint Depression Visibility Wind Speed Wind Dir Waves Ship Positions

Malaviya Twenty

Last reported at 2015-Jan-31 02:23 UTC. Time now 2015-Jan-31 05:31 UTC.
Position N 52°59' E 002°13'.

Length 72 m; draft 4.5 m.

Type: Ship. MMSI: 419504000.

Date/timePositionNaut miles runAvg speedWind from/ knotsBaromVisibWave heightAir tempDewpointWater temp
2015-Jan-31 02:23N 52°59' E 002°13'7 8.5
2015-Jan-31 01:33N 52°55' E 002°04'9 8.8
2015-Jan-31 00:34N 52°48' E 001°55'9 9.4
2015-Jan-30 23:33N 52°41' E 001°46'5 5.3
2015-Jan-30 22:33N 52°35' E 001°44'0 0.0
2015-Jan-30 21:33N 52°35' E 001°44'0 0.0
2015-Jan-30 20:33N 52°35' E 001°44'1 1.3
2015-Jan-30 19:33N 52°35' E 001°45'6 6.5
2015-Jan-30 18:33N 52°41' E 001°46'1010.2
2015-Jan-30 17:33N 52°49' E 001°56'23 2.5
2015-Jan-30 08:14N 53°11' E 002°06'6 8.1
2015-Jan-30 07:31N 53°15' E 001°58'  
2015-Jan-28 03:17N 53°14' E 001°28'710.0
2015-Jan-28 02:33N 53°07' E 001°28'8 8.4
2015-Jan-28 01:33N 52°58' E 001°31'8 8.4
2015-Jan-28 00:33N 52°51' E 001°38'8 8.4
2015-Jan-27 23:33N 52°44' E 001°46'8 8.3
2015-Jan-27 22:33N 52°36' E 001°46'1 1.2
2015-Jan-27 21:32N 52°35' E 001°44'0 0.0
2015-Jan-27 20:32N 52°35' E 001°44'0 0.0
2015-Jan-27 19:32N 52°35' E 001°44'0 0.0
2015-Jan-27 18:32N 52°35' E 001°44'0 0.0
2015-Jan-27 17:32N 52°35' E 001°44'0 0.0
2015-Jan-27 16:32N 52°35' E 001°44'0 0.2
2015-Jan-27 15:33N 52°36' E 001°44'0 0.0
2015-Jan-27 14:32N 52°36' E 001°44'0 0.0
2015-Jan-27 13:32N 52°36' E 001°44'0 0.0
2015-Jan-27 12:32N 52°36' E 001°44'0 0.0
2015-Jan-27 11:32N 52°36' E 001°44'0 0.0
2015-Jan-27 10:31N 52°36' E 001°44'0 0.0
2015-Jan-27 09:31N 52°36' E 001°44'0 0.0
2015-Jan-27 08:31N 52°36' E 001°44'0 0.0
2015-Jan-27 07:31N 52°36' E 001°44'0 0.0
2015-Jan-27 06:34N 52°36' E 001°44'1 1.2
2015-Jan-27 05:34N 52°35' E 001°45'2 1.9
2015-Jan-27 04:33N 52°37' E 001°46'7 7.3
2015-Jan-27 03:34N 52°44' E 001°49'6 5.8
2015-Jan-27 02:34N 52°49' E 001°55'6 6.3
2015-Jan-27 01:34N 52°53' E 002°01'12 5.5
2015-Jan-26 23:20N 53°03' E 002°14'0 0.1
2015-Jan-26 15:28N 53°03' E 002°13'0 0.2
2015-Jan-26 12:34N 53°03' E 002°14'2 0.6
2015-Jan-26 08:33N 53°01' E 002°14'1 0.2
2015-Jan-26 05:10N 53°02' E 002°14'0 0.1
2015-Jan-26 04:31N 53°02' E 002°14'1 0.5
2015-Jan-26 01:31N 53°03' E 002°14'0 0.2
2015-Jan-26 00:31N 53°03' E 002°14'0 0.1
2015-Jan-25 23:34N 53°03' E 002°14'2 0.4
2015-Jan-25 19:19N 53°01' E 002°14'12 5.7
2015-Jan-25 17:16N 53°05' E 002°33'2 1.4
2015-Jan-25 16:09N 53°04' E 002°31'10 5.6
2015-Jan-25 14:23N 53°03' E 002°14'0 0.1
2015-Jan-25 13:10N 53°03' E 002°14'3 0.8
2015-Jan-25 09:31N 53°02' E 002°18'2 1.2
2015-Jan-25 08:13N 53°02' E 002°16'1 0.8
2015-Jan-25 06:33N 53°01' E 002°18'2 2.1
2015-Jan-25 05:29N 53°03' E 002°15'1 0.5
2015-Jan-25 04:18N 53°02' E 002°15'1 0.4
2015-Jan-25 02:09N 53°03' E 002°14'0 0.7
2015-Jan-25 01:27N 53°03' E 002°14'0 0.0
2015-Jan-25 00:33N 53°03' E 002°14'2 0.2
2015-Jan-24 14:32N 53°02' E 002°16'3 0.2
2015-Jan-24 03:20N 52°60' E 002°13'1 1.8
2015-Jan-24 02:33N 53°01' E 002°15'2 1.9
2015-Jan-24 01:29N 53°02' E 002°18'4 3.1
2015-Jan-24 00:15N 52°59' E 002°13'5 6.7
2015-Jan-23 23:34N 52°56' E 002°07'8 7.6
2015-Jan-23 22:33N 52°51' E 001°58'8 7.8
2015-Jan-23 21:33N 52°45' E 001°50'8 7.8
2015-Jan-23 20:33N 52°38' E 001°46'3 2.7
2015-Jan-23 19:34N 52°35' E 001°44'0 0.4
2015-Jan-23 18:33N 52°36' E 001°44'0 0.0
2015-Jan-23 17:33N 52°36' E 001°44'0 0.0
2015-Jan-23 16:33N 52°36' E 001°44'0 0.1
2015-Jan-23 15:33N 52°35' E 001°44'0 0.3
2015-Jan-23 14:33N 52°35' E 001°44'5 4.6
2015-Jan-23 13:34N 52°40' E 001°46'1010.2
2015-Jan-23 12:34N 52°48' E 001°55'1111.1
2015-Jan-23 11:33N 52°56' E 002°08'8 7.7
2015-Jan-23 10:33N 53°03' E 002°14'0 0.0
2015-Jan-23 09:33N 53°03' E 002°14'2 0.6
2015-Jan-23 06:25N 53°01' E 002°14'2 0.3
2015-Jan-23 01:18N 53°02' E 002°17'3 3.9
2015-Jan-23 00:33N 53°04' E 002°14'52 4.3
2015-Jan-22 12:17N 53°40' E 001°09'  

Dump ship's entire track history